sensor_id;sensor_type;location;lat;lon;timestamp;P1;durP1;ratioP1;P2;durP2;ratioP2
50056;SDS011;36875;49.468;11.200;2022-09-03T00:02:24;3.70;;;1.70;;
50056;SDS011;36875;49.468;11.200;2022-09-03T00:04:57;3.38;;;1.73;;
50056;SDS011;36875;49.468;11.200;2022-09-03T00:07:31;3.22;;;1.80;;
50056;SDS011;36875;49.468;11.200;2022-09-03T00:10:04;4.18;;;1.85;;
50056;SDS011;36875;49.468;11.200;2022-09-03T00:12:35;3.08;;;1.77;;
50056;SDS011;36875;49.468;11.200;2022-09-03T00:15:04;2.95;;;1.90;;
50056;SDS011;36875;49.468;11.200;2022-09-03T00:17:35;2.83;;;1.67;;
50056;SDS011;36875;49.468;11.200;2022-09-03T00:20:03;3.03;;;1.88;;
50056;SDS011;36875;49.468;11.200;2022-09-03T00:22:32;3.05;;;1.75;;
50056;SDS011;36875;49.468;11.200;2022-09-03T00:25:02;2.38;;;1.60;;
50056;SDS011;36875;49.468;11.200;2022-09-03T00:27:32;3.22;;;1.65;;
50056;SDS011;36875;49.468;11.200;2022-09-03T00:30:04;2.20;;;1.67;;
50056;SDS011;36875;49.468;11.200;2022-09-03T00:32:38;3.13;;;1.80;;
50056;SDS011;36875;49.468;11.200;2022-09-03T00:35:08;3.30;;;1.67;;
50056;SDS011;36875;49.468;11.200;2022-09-03T00:37:41;3.45;;;1.33;;
50056;SDS011;36875;49.468;11.200;2022-09-03T00:40:07;2.97;;;1.80;;
50056;SDS011;36875;49.468;11.200;2022-09-03T00:42:41;2.60;;;1.70;;
50056;SDS011;36875;49.468;11.200;2022-09-03T00:45:16;2.90;;;1.75;;
50056;SDS011;36875;49.468;11.200;2022-09-03T00:47:56;2.72;;;1.50;;
50056;SDS011;36875;49.468;11.200;2022-09-03T00:50:35;2.95;;;1.70;;
50056;SDS011;36875;49.468;11.200;2022-09-03T00:53:10;4.10;;;2.22;;
50056;SDS011;36875;49.468;11.200;2022-09-03T00:55:46;3.15;;;1.60;;
50056;SDS011;36875;49.468;11.200;2022-09-03T00:58:35;2.78;;;1.48;;
50056;SDS011;36875;49.468;11.200;2022-09-03T01:01:19;2.55;;;1.75;;
50056;SDS011;36875;49.468;11.200;2022-09-03T01:03:53;3.03;;;1.58;;
50056;SDS011;36875;49.468;11.200;2022-09-03T01:06:31;3.38;;;1.60;;
50056;SDS011;36875;49.468;11.200;2022-09-03T01:09:11;2.25;;;1.35;;
50056;SDS011;36875;49.468;11.200;2022-09-03T01:11:49;2.97;;;1.63;;
50056;SDS011;36875;49.468;11.200;2022-09-03T01:14:33;3.65;;;1.70;;
50056;SDS011;36875;49.468;11.200;2022-09-03T01:17:08;2.33;;;1.55;;
50056;SDS011;36875;49.468;11.200;2022-09-03T01:19:54;3.35;;;1.67;;
50056;SDS011;36875;49.468;11.200;2022-09-03T01:25:35;2.45;;;1.40;;
50056;SDS011;36875;49.468;11.200;2022-09-03T01:30:44;2.92;;;1.38;;
50056;SDS011;36875;49.468;11.200;2022-09-03T01:33:16;1.83;;;1.35;;
50056;SDS011;36875;49.468;11.200;2022-09-03T01:35:51;2.08;;;1.40;;
50056;SDS011;36875;49.468;11.200;2022-09-03T01:38:23;2.15;;;1.40;;
50056;SDS011;36875;49.468;11.200;2022-09-03T01:40:59;2.75;;;1.63;;
50056;SDS011;36875;49.468;11.200;2022-09-03T01:43:56;3.15;;;1.60;;
50056;SDS011;36875;49.468;11.200;2022-09-03T01:46:35;2.03;;;1.33;;
50056;SDS011;36875;49.468;11.200;2022-09-03T01:49:05;3.55;;;1.30;;
50056;SDS011;36875;49.468;11.200;2022-09-03T01:51:40;3.70;;;1.58;;
50056;SDS011;36875;49.468;11.200;2022-09-03T01:57:10;2.17;;;1.30;;
50056;SDS011;36875;49.468;11.200;2022-09-03T01:59:50;2.85;;;1.55;;
50056;SDS011;36875;49.468;11.200;2022-09-03T02:02:23;1.80;;;1.20;;
50056;SDS011;36875;49.468;11.200;2022-09-03T02:04:54;2.95;;;1.30;;
50056;SDS011;36875;49.468;11.200;2022-09-03T02:07:23;2.80;;;1.25;;
50056;SDS011;36875;49.468;11.200;2022-09-03T02:09:52;2.28;;;1.23;;
50056;SDS011;36875;49.468;11.200;2022-09-03T02:12:18;1.88;;;1.30;;
50056;SDS011;36875;49.468;11.200;2022-09-03T02:14:44;3.22;;;1.45;;
50056;SDS011;36875;49.468;11.200;2022-09-03T02:17:12;2.75;;;1.50;;
50056;SDS011;36875;49.468;11.200;2022-09-03T02:19:37;2.38;;;1.40;;
50056;SDS011;36875;49.468;11.200;2022-09-03T02:22:03;2.22;;;1.33;;
50056;SDS011;36875;49.468;11.200;2022-09-03T02:24:29;2.40;;;1.25;;
50056;SDS011;36875;49.468;11.200;2022-09-03T02:26:55;1.85;;;1.10;;
50056;SDS011;36875;49.468;11.200;2022-09-03T02:29:21;1.75;;;1.40;;
50056;SDS011;36875;49.468;11.200;2022-09-03T02:31:47;1.50;;;1.20;;
50056;SDS011;36875;49.468;11.200;2022-09-03T02:34:15;3.28;;;1.42;;
50056;SDS011;36875;49.468;11.200;2022-09-03T02:36:41;2.67;;;1.60;;
50056;SDS011;36875;49.468;11.200;2022-09-03T02:39:10;3.17;;;1.35;;
50056;SDS011;36875;49.468;11.200;2022-09-03T02:41:35;1.58;;;1.10;;
50056;SDS011;36875;49.468;11.200;2022-09-03T02:44:02;2.03;;;1.20;;
50056;SDS011;36875;49.468;11.200;2022-09-03T02:46:31;3.22;;;1.40;;
50056;SDS011;36875;49.468;11.200;2022-09-03T02:49:00;3.30;;;1.40;;
50056;SDS011;36875;49.468;11.200;2022-09-03T02:51:27;2.22;;;1.15;;
50056;SDS011;36875;49.468;11.200;2022-09-03T02:53:56;3.55;;;1.20;;
50056;SDS011;36875;49.468;11.200;2022-09-03T02:56:22;1.35;;;0.98;;
50056;SDS011;36875;49.468;11.200;2022-09-03T02:58:52;2.67;;;1.17;;
50056;SDS011;36875;49.468;11.200;2022-09-03T03:01:18;1.35;;;1.10;;
50056;SDS011;36875;49.468;11.200;2022-09-03T03:03:44;2.08;;;1.08;;
50056;SDS011;36875;49.468;11.200;2022-09-03T03:06:09;1.85;;;1.25;;
50056;SDS011;36875;49.468;11.200;2022-09-03T03:08:39;2.30;;;1.20;;
50056;SDS011;36875;49.468;11.200;2022-09-03T03:11:05;2.10;;;1.40;;
50056;SDS011;36875;49.468;11.200;2022-09-03T03:13:32;2.55;;;1.30;;
50056;SDS011;36875;49.468;11.200;2022-09-03T03:15:58;3.45;;;1.73;;
50056;SDS011;36875;49.468;11.200;2022-09-03T03:18:25;2.65;;;1.15;;
50056;SDS011;36875;49.468;11.200;2022-09-03T03:20:51;2.00;;;1.13;;
50056;SDS011;36875;49.468;11.200;2022-09-03T03:23:17;1.98;;;1.30;;
50056;SDS011;36875;49.468;11.200;2022-09-03T03:25:44;1.83;;;1.08;;
50056;SDS011;36875;49.468;11.200;2022-09-03T03:28:09;1.60;;;1.10;;
50056;SDS011;36875;49.468;11.200;2022-09-03T03:30:38;1.55;;;0.90;;
50056;SDS011;36875;49.468;11.200;2022-09-03T03:33:04;2.35;;;1.50;;
50056;SDS011;36875;49.468;11.200;2022-09-03T03:35:31;2.45;;;1.58;;
50056;SDS011;36875;49.468;11.200;2022-09-03T03:37:57;3.17;;;1.15;;
50056;SDS011;36875;49.468;11.200;2022-09-03T03:40:22;1.40;;;1.00;;
50056;SDS011;36875;49.468;11.200;2022-09-03T03:42:49;1.70;;;1.00;;
50056;SDS011;36875;49.468;11.200;2022-09-03T03:45:15;2.45;;;1.17;;
50056;SDS011;36875;49.468;11.200;2022-09-03T03:47:41;1.08;;;0.85;;
50056;SDS011;36875;49.468;11.200;2022-09-03T03:50:07;1.13;;;1.00;;
50056;SDS011;36875;49.468;11.200;2022-09-03T03:52:33;1.90;;;1.30;;
50056;SDS011;36875;49.468;11.200;2022-09-03T03:54:58;2.55;;;1.20;;
50056;SDS011;36875;49.468;11.200;2022-09-03T03:57:24;1.35;;;1.00;;
50056;SDS011;36875;49.468;11.200;2022-09-03T03:59:51;1.85;;;1.10;;
50056;SDS011;36875;49.468;11.200;2022-09-03T04:02:17;1.45;;;1.10;;
50056;SDS011;36875;49.468;11.200;2022-09-03T04:04:43;1.50;;;1.00;;
50056;SDS011;36875;49.468;11.200;2022-09-03T04:07:08;2.72;;;1.20;;
50056;SDS011;36875;49.468;11.200;2022-09-03T04:09:34;1.17;;;1.02;;
50056;SDS011;36875;49.468;11.200;2022-09-03T04:12:00;2.22;;;1.08;;
50056;SDS011;36875;49.468;11.200;2022-09-03T04:14:26;2.42;;;1.20;;
50056;SDS011;36875;49.468;11.200;2022-09-03T04:16:53;1.40;;;1.10;;
50056;SDS011;36875;49.468;11.200;2022-09-03T04:19:18;1.63;;;0.90;;
50056;SDS011;36875;49.468;11.200;2022-09-03T04:21:44;3.50;;;1.38;;
50056;SDS011;36875;49.468;11.200;2022-09-03T04:24:10;1.33;;;0.85;;
50056;SDS011;36875;49.468;11.200;2022-09-03T04:26:36;2.00;;;1.38;;
50056;SDS011;36875;49.468;11.200;2022-09-03T04:29:03;1.35;;;1.02;;
50056;SDS011;36875;49.468;11.200;2022-09-03T04:31:30;1.75;;;1.10;;
50056;SDS011;36875;49.468;11.200;2022-09-03T04:33:58;1.38;;;1.08;;
50056;SDS011;36875;49.468;11.200;2022-09-03T04:36:24;1.25;;;0.90;;
50056;SDS011;36875;49.468;11.200;2022-09-03T04:38:52;1.50;;;1.20;;
50056;SDS011;36875;49.468;11.200;2022-09-03T04:41:20;1.25;;;1.00;;
50056;SDS011;36875;49.468;11.200;2022-09-03T04:43:49;1.10;;;0.98;;
50056;SDS011;36875;49.468;11.200;2022-09-03T04:46:15;2.00;;;0.80;;
50056;SDS011;36875;49.468;11.200;2022-09-03T04:48:41;1.40;;;0.90;;
50056;SDS011;36875;49.468;11.200;2022-09-03T04:51:09;1.50;;;1.00;;
50056;SDS011;36875;49.468;11.200;2022-09-03T04:53:36;1.98;;;1.10;;
50056;SDS011;36875;49.468;11.200;2022-09-03T04:56:03;1.88;;;1.20;;
50056;SDS011;36875;49.468;11.200;2022-09-03T04:58:37;1.90;;;1.00;;
50056;SDS011;36875;49.468;11.200;2022-09-03T05:01:06;1.45;;;0.90;;
50056;SDS011;36875;49.468;11.200;2022-09-03T05:03:32;2.35;;;1.17;;
50056;SDS011;36875;49.468;11.200;2022-09-03T05:05:58;3.05;;;1.05;;
50056;SDS011;36875;49.468;11.200;2022-09-03T05:08:25;1.83;;;1.00;;
50056;SDS011;36875;49.468;11.200;2022-09-03T05:10:56;1.15;;;0.90;;
50056;SDS011;36875;49.468;11.200;2022-09-03T05:13:24;1.20;;;0.90;;
50056;SDS011;36875;49.468;11.200;2022-09-03T05:15:49;1.42;;;1.05;;
50056;SDS011;36875;49.468;11.200;2022-09-03T05:18:15;1.73;;;1.00;;
50056;SDS011;36875;49.468;11.200;2022-09-03T05:20:41;1.65;;;1.00;;
50056;SDS011;36875;49.468;11.200;2022-09-03T05:23:07;1.38;;;0.98;;
50056;SDS011;36875;49.468;11.200;2022-09-03T05:25:34;1.10;;;0.90;;
50056;SDS011;36875;49.468;11.200;2022-09-03T05:28:02;2.05;;;1.10;;
50056;SDS011;36875;49.468;11.200;2022-09-03T05:30:29;1.48;;;1.00;;
50056;SDS011;36875;49.468;11.200;2022-09-03T05:32:55;1.25;;;0.93;;
50056;SDS011;36875;49.468;11.200;2022-09-03T05:35:21;1.52;;;1.00;;
50056;SDS011;36875;49.468;11.200;2022-09-03T05:37:46;2.08;;;0.80;;
50056;SDS011;36875;49.468;11.200;2022-09-03T05:40:12;2.63;;;1.20;;
50056;SDS011;36875;49.468;11.200;2022-09-03T05:42:39;1.60;;;1.00;;
50056;SDS011;36875;49.468;11.200;2022-09-03T05:45:06;1.60;;;1.02;;
50056;SDS011;36875;49.468;11.200;2022-09-03T05:47:35;1.10;;;0.93;;
50056;SDS011;36875;49.468;11.200;2022-09-03T05:50:01;1.80;;;0.90;;
50056;SDS011;36875;49.468;11.200;2022-09-03T05:52:27;1.95;;;1.10;;
50056;SDS011;36875;49.468;11.200;2022-09-03T05:54:52;2.50;;;1.20;;
50056;SDS011;36875;49.468;11.200;2022-09-03T05:57:18;0.90;;;0.80;;
50056;SDS011;36875;49.468;11.200;2022-09-03T05:59:45;1.52;;;0.93;;
50056;SDS011;36875;49.468;11.200;2022-09-03T06:02:10;1.60;;;0.95;;
50056;SDS011;36875;49.468;11.200;2022-09-03T06:04:36;1.58;;;1.08;;
50056;SDS011;36875;49.468;11.200;2022-09-03T06:07:02;1.42;;;0.93;;
50056;SDS011;36875;49.468;11.200;2022-09-03T06:09:28;1.42;;;0.90;;
50056;SDS011;36875;49.468;11.200;2022-09-03T06:11:53;1.77;;;1.00;;
50056;SDS011;36875;49.468;11.200;2022-09-03T06:14:19;1.38;;;1.10;;
50056;SDS011;36875;49.468;11.200;2022-09-03T06:16:47;1.23;;;0.80;;
50056;SDS011;36875;49.468;11.200;2022-09-03T06:19:13;1.48;;;1.05;;
50056;SDS011;36875;49.468;11.200;2022-09-03T06:21:39;2.08;;;1.02;;
50056;SDS011;36875;49.468;11.200;2022-09-03T06:24:07;4.00;;;1.20;;
50056;SDS011;36875;49.468;11.200;2022-09-03T06:26:34;2.05;;;1.30;;
50056;SDS011;36875;49.468;11.200;2022-09-03T06:28:59;2.33;;;1.15;;
50056;SDS011;36875;49.468;11.200;2022-09-03T06:31:25;3.60;;;0.95;;
50056;SDS011;36875;49.468;11.200;2022-09-03T06:33:53;1.55;;;1.02;;
50056;SDS011;36875;49.468;11.200;2022-09-03T06:36:19;2.88;;;1.30;;
50056;SDS011;36875;49.468;11.200;2022-09-03T06:38:46;2.83;;;1.20;;
50056;SDS011;36875;49.468;11.200;2022-09-03T06:41:16;3.28;;;1.20;;
50056;SDS011;36875;49.468;11.200;2022-09-03T06:43:50;2.25;;;1.13;;
50056;SDS011;36875;49.468;11.200;2022-09-03T06:46:18;2.67;;;0.95;;
50056;SDS011;36875;49.468;11.200;2022-09-03T06:48:44;1.77;;;1.10;;
50056;SDS011;36875;49.468;11.200;2022-09-03T06:51:12;2.35;;;1.00;;
50056;SDS011;36875;49.468;11.200;2022-09-03T06:53:40;2.92;;;1.02;;
50056;SDS011;36875;49.468;11.200;2022-09-03T06:56:07;4.10;;;1.30;;
50056;SDS011;36875;49.468;11.200;2022-09-03T06:58:34;3.42;;;1.20;;
50056;SDS011;36875;49.468;11.200;2022-09-03T07:01:01;3.58;;;1.10;;
50056;SDS011;36875;49.468;11.200;2022-09-03T07:03:28;2.75;;;1.10;;
50056;SDS011;36875;49.468;11.200;2022-09-03T07:05:58;4.13;;;1.27;;
50056;SDS011;36875;49.468;11.200;2022-09-03T07:08:26;2.65;;;1.10;;
50056;SDS011;36875;49.468;11.200;2022-09-03T07:10:52;5.32;;;1.30;;
50056;SDS011;36875;49.468;11.200;2022-09-03T07:13:17;6.32;;;1.20;;
50056;SDS011;36875;49.468;11.200;2022-09-03T07:15:44;4.10;;;1.40;;
50056;SDS011;36875;49.468;11.200;2022-09-03T07:18:09;2.72;;;1.20;;
50056;SDS011;36875;49.468;11.200;2022-09-03T07:20:35;3.35;;;1.23;;
50056;SDS011;36875;49.468;11.200;2022-09-03T07:23:01;2.47;;;1.50;;
50056;SDS011;36875;49.468;11.200;2022-09-03T07:25:28;5.72;;;1.20;;
50056;SDS011;36875;49.468;11.200;2022-09-03T07:27:55;2.90;;;1.20;;
50056;SDS011;36875;49.468;11.200;2022-09-03T07:30:22;6.95;;;2.10;;
50056;SDS011;36875;49.468;11.200;2022-09-03T07:32:50;4.70;;;1.60;;
50056;SDS011;36875;49.468;11.200;2022-09-03T07:35:16;3.03;;;1.23;;
50056;SDS011;36875;49.468;11.200;2022-09-03T07:37:43;4.63;;;1.33;;
50056;SDS011;36875;49.468;11.200;2022-09-03T07:40:09;3.63;;;1.27;;
50056;SDS011;36875;49.468;11.200;2022-09-03T07:42:36;4.75;;;1.27;;
50056;SDS011;36875;49.468;11.200;2022-09-03T07:45:04;5.35;;;1.42;;
50056;SDS011;36875;49.468;11.200;2022-09-03T07:47:34;7.80;;;1.60;;
50056;SDS011;36875;49.468;11.200;2022-09-03T07:50:00;5.95;;;1.40;;
50056;SDS011;36875;49.468;11.200;2022-09-03T07:52:25;6.65;;;1.58;;
50056;SDS011;36875;49.468;11.200;2022-09-03T07:54:52;2.42;;;1.27;;
50056;SDS011;36875;49.468;11.200;2022-09-03T07:57:17;6.28;;;1.95;;
50056;SDS011;36875;49.468;11.200;2022-09-03T07:59:44;7.30;;;2.28;;
50056;SDS011;36875;49.468;11.200;2022-09-03T08:02:10;11.20;;;1.70;;
50056;SDS011;36875;49.468;11.200;2022-09-03T08:04:35;4.75;;;1.50;;
50056;SDS011;36875;49.468;11.200;2022-09-03T08:07:02;6.68;;;1.70;;
50056;SDS011;36875;49.468;11.200;2022-09-03T08:09:29;6.07;;;1.50;;
50056;SDS011;36875;49.468;11.200;2022-09-03T08:11:57;7.13;;;1.60;;
50056;SDS011;36875;49.468;11.200;2022-09-03T08:14:22;6.47;;;1.42;;
50056;SDS011;36875;49.468;11.200;2022-09-03T08:16:49;6.80;;;1.92;;
50056;SDS011;36875;49.468;11.200;2022-09-03T08:19:15;9.70;;;1.98;;
50056;SDS011;36875;49.468;11.200;2022-09-03T08:21:42;3.55;;;1.70;;
50056;SDS011;36875;49.468;11.200;2022-09-03T08:24:09;9.23;;;1.90;;
50056;SDS011;36875;49.468;11.200;2022-09-03T08:26:35;6.65;;;1.60;;
50056;SDS011;36875;49.468;11.200;2022-09-03T08:29:03;5.82;;;2.25;;
50056;SDS011;36875;49.468;11.200;2022-09-03T08:31:29;11.15;;;1.60;;
50056;SDS011;36875;49.468;11.200;2022-09-03T08:33:58;5.72;;;1.33;;
50056;SDS011;36875;49.468;11.200;2022-09-03T08:36:27;7.80;;;1.50;;
50056;SDS011;36875;49.468;11.200;2022-09-03T08:38:54;5.97;;;1.60;;
50056;SDS011;36875;49.468;11.200;2022-09-03T08:41:22;4.90;;;1.65;;
50056;SDS011;36875;49.468;11.200;2022-09-03T08:44:09;11.55;;;1.88;;
50056;SDS011;36875;49.468;11.200;2022-09-03T08:46:46;6.07;;;2.20;;
50056;SDS011;36875;49.468;11.200;2022-09-03T08:49:18;5.70;;;1.50;;
50056;SDS011;36875;49.468;11.200;2022-09-03T08:51:48;10.23;;;1.85;;
50056;SDS011;36875;49.468;11.200;2022-09-03T08:54:16;7.43;;;1.40;;
50056;SDS011;36875;49.468;11.200;2022-09-03T08:56:46;4.25;;;1.60;;
50056;SDS011;36875;49.468;11.200;2022-09-03T08:59:11;8.30;;;1.77;;
50056;SDS011;36875;49.468;11.200;2022-09-03T09:01:44;4.80;;;1.90;;
50056;SDS011;36875;49.468;11.200;2022-09-03T09:04:20;4.22;;;1.42;;
50056;SDS011;36875;49.468;11.200;2022-09-03T09:06:56;4.40;;;1.40;;
50056;SDS011;36875;49.468;11.200;2022-09-03T09:09:30;4.85;;;1.40;;
50056;SDS011;36875;49.468;11.200;2022-09-03T09:12:06;1.83;;;1.20;;
50056;SDS011;36875;49.468;11.200;2022-09-03T09:14:42;5.53;;;1.30;;
50056;SDS011;36875;49.468;11.200;2022-09-03T09:17:20;3.25;;;1.20;;
50056;SDS011;36875;49.468;11.200;2022-09-03T09:20:00;4.63;;;1.30;;
50056;SDS011;36875;49.468;11.200;2022-09-03T09:22:32;2.83;;;1.33;;
50056;SDS011;36875;49.468;11.200;2022-09-03T09:25:03;2.88;;;1.20;;
50056;SDS011;36875;49.468;11.200;2022-09-03T09:27:33;1.88;;;1.30;;
50056;SDS011;36875;49.468;11.200;2022-09-03T09:30:00;2.17;;;1.05;;
50056;SDS011;36875;49.468;11.200;2022-09-03T09:32:29;2.53;;;1.27;;
50056;SDS011;36875;49.468;11.200;2022-09-03T09:34:57;3.17;;;1.30;;
50056;SDS011;36875;49.468;11.200;2022-09-03T09:37:23;1.75;;;0.93;;
50056;SDS011;36875;49.468;11.200;2022-09-03T09:39:55;5.38;;;1.40;;
50056;SDS011;36875;49.468;11.200;2022-09-03T09:42:22;4.07;;;1.30;;
50056;SDS011;36875;49.468;11.200;2022-09-03T09:44:48;3.00;;;1.05;;
50056;SDS011;36875;49.468;11.200;2022-09-03T09:47:15;1.15;;;1.02;;
50056;SDS011;36875;49.468;11.200;2022-09-03T09:49:50;4.03;;;1.30;;
50056;SDS011;36875;49.468;11.200;2022-09-03T09:52:19;2.38;;;1.30;;
50056;SDS011;36875;49.468;11.200;2022-09-03T09:54:49;3.17;;;1.45;;
50056;SDS011;36875;49.468;11.200;2022-09-03T09:57:20;2.13;;;1.10;;
50056;SDS011;36875;49.468;11.200;2022-09-03T09:59:47;5.28;;;1.40;;
50056;SDS011;36875;49.468;11.200;2022-09-03T10:02:18;1.63;;;1.10;;
50056;SDS011;36875;49.468;11.200;2022-09-03T10:04:50;4.43;;;1.30;;
50056;SDS011;36875;49.468;11.200;2022-09-03T10:07:24;2.75;;;1.00;;
50056;SDS011;36875;49.468;11.200;2022-09-03T10:09:58;3.00;;;1.35;;
50056;SDS011;36875;49.468;11.200;2022-09-03T10:12:27;2.60;;;1.27;;
50056;SDS011;36875;49.468;11.200;2022-09-03T10:15:00;4.78;;;1.38;;
50056;SDS011;36875;49.468;11.200;2022-09-03T10:17:41;3.15;;;1.27;;
50056;SDS011;36875;49.468;11.200;2022-09-03T10:20:13;5.50;;;1.40;;
50056;SDS011;36875;49.468;11.200;2022-09-03T10:22:55;4.05;;;1.60;;
50056;SDS011;36875;49.468;11.200;2022-09-03T10:25:24;3.40;;;1.42;;
50056;SDS011;36875;49.468;11.200;2022-09-03T10:27:53;6.78;;;1.80;;
50056;SDS011;36875;49.468;11.200;2022-09-03T10:30:20;8.27;;;1.63;;
50056;SDS011;36875;49.468;11.200;2022-09-03T10:32:49;5.35;;;1.50;;
50056;SDS011;36875;49.468;11.200;2022-09-03T10:35:26;6.75;;;1.52;;
50056;SDS011;36875;49.468;11.200;2022-09-03T10:37:59;8.88;;;1.77;;
50056;SDS011;36875;49.468;11.200;2022-09-03T10:40:34;9.70;;;1.92;;
50056;SDS011;36875;49.468;11.200;2022-09-03T10:43:21;10.65;;;1.80;;
50056;SDS011;36875;49.468;11.200;2022-09-03T10:45:59;7.97;;;1.90;;
50056;SDS011;36875;49.468;11.200;2022-09-03T10:48:42;10.00;;;1.52;;
50056;SDS011;36875;49.468;11.200;2022-09-03T10:51:23;7.82;;;1.48;;
50056;SDS011;36875;49.468;11.200;2022-09-03T10:54:01;8.38;;;1.90;;
50056;SDS011;36875;49.468;11.200;2022-09-03T10:56:44;9.38;;;1.95;;
50056;SDS011;36875;49.468;11.200;2022-09-03T10:59:23;11.70;;;1.63;;
50056;SDS011;36875;49.468;11.200;2022-09-03T11:01:58;9.77;;;1.50;;
50056;SDS011;36875;49.468;11.200;2022-09-03T11:04:40;8.73;;;1.67;;
50056;SDS011;36875;49.468;11.200;2022-09-03T11:07:13;11.00;;;2.35;;
50056;SDS011;36875;49.468;11.200;2022-09-03T11:09:47;5.93;;;1.73;;
50056;SDS011;36875;49.468;11.200;2022-09-03T11:12:19;10.77;;;1.70;;
50056;SDS011;36875;49.468;11.200;2022-09-03T11:14:50;10.13;;;1.70;;
50056;SDS011;36875;49.468;11.200;2022-09-03T11:17:23;8.98;;;1.80;;
50056;SDS011;36875;49.468;11.200;2022-09-03T11:19:52;6.90;;;2.45;;
50056;SDS011;36875;49.468;11.200;2022-09-03T11:22:22;6.65;;;1.50;;
50056;SDS011;36875;49.468;11.200;2022-09-03T11:24:53;9.40;;;1.90;;
50056;SDS011;36875;49.468;11.200;2022-09-03T11:27:25;5.80;;;1.70;;
50056;SDS011;36875;49.468;11.200;2022-09-03T11:30:01;3.67;;;1.40;;
50056;SDS011;36875;49.468;11.200;2022-09-03T11:32:34;8.88;;;1.80;;
50056;SDS011;36875;49.468;11.200;2022-09-03T11:35:14;7.57;;;1.67;;
50056;SDS011;36875;49.468;11.200;2022-09-03T11:40:15;7.90;;;1.75;;
50056;SDS011;36875;49.468;11.200;2022-09-03T11:42:42;5.65;;;1.83;;
50056;SDS011;36875;49.468;11.200;2022-09-03T11:45:13;5.63;;;1.92;;
50056;SDS011;36875;49.468;11.200;2022-09-03T11:47:46;5.40;;;1.60;;
50056;SDS011;36875;49.468;11.200;2022-09-03T11:50:15;13.73;;;2.83;;
50056;SDS011;36875;49.468;11.200;2022-09-03T11:52:45;9.82;;;2.13;;
50056;SDS011;36875;49.468;11.200;2022-09-03T11:55:11;10.45;;;2.97;;
50056;SDS011;36875;49.468;11.200;2022-09-03T11:57:49;13.07;;;2.90;;
50056;SDS011;36875;49.468;11.200;2022-09-03T12:00:16;13.20;;;3.17;;
50056;SDS011;36875;49.468;11.200;2022-09-03T12:02:46;9.50;;;2.60;;
50056;SDS011;36875;49.468;11.200;2022-09-03T12:05:20;9.38;;;2.72;;
50056;SDS011;36875;49.468;11.200;2022-09-03T12:07:56;8.80;;;2.55;;
50056;SDS011;36875;49.468;11.200;2022-09-03T12:10:45;10.20;;;2.33;;
50056;SDS011;36875;49.468;11.200;2022-09-03T12:13:22;10.32;;;3.53;;
50056;SDS011;36875;49.468;11.200;2022-09-03T12:16:02;11.23;;;2.67;;
50056;SDS011;36875;49.468;11.200;2022-09-03T12:18:45;7.85;;;2.58;;
50056;SDS011;36875;49.468;11.200;2022-09-03T12:21:17;8.70;;;2.60;;
50056;SDS011;36875;49.468;11.200;2022-09-03T12:23:44;5.82;;;2.30;;
50056;SDS011;36875;49.468;11.200;2022-09-03T12:26:12;9.15;;;2.95;;
50056;SDS011;36875;49.468;11.200;2022-09-03T12:28:41;8.38;;;2.40;;
50056;SDS011;36875;49.468;11.200;2022-09-03T12:31:09;10.32;;;2.88;;
50056;SDS011;36875;49.468;11.200;2022-09-03T12:33:48;8.65;;;2.58;;
50056;SDS011;36875;49.468;11.200;2022-09-03T12:36:15;7.10;;;2.60;;
50056;SDS011;36875;49.468;11.200;2022-09-03T12:38:42;6.63;;;2.10;;
50056;SDS011;36875;49.468;11.200;2022-09-03T12:41:18;7.88;;;3.00;;
50056;SDS011;36875;49.468;11.200;2022-09-03T12:43:49;6.10;;;2.33;;
50056;SDS011;36875;49.468;11.200;2022-09-03T12:46:15;9.63;;;2.80;;
50056;SDS011;36875;49.468;11.200;2022-09-03T12:48:45;6.95;;;2.40;;
50056;SDS011;36875;49.468;11.200;2022-09-03T12:51:16;8.32;;;2.30;;
50056;SDS011;36875;49.468;11.200;2022-09-03T12:53:42;6.47;;;2.55;;
50056;SDS011;36875;49.468;11.200;2022-09-03T12:56:07;7.25;;;2.75;;
50056;SDS011;36875;49.468;11.200;2022-09-03T12:58:35;8.95;;;2.47;;
50056;SDS011;36875;49.468;11.200;2022-09-03T13:01:08;7.85;;;3.13;;
50056;SDS011;36875;49.468;11.200;2022-09-03T13:03:40;5.80;;;2.65;;
50056;SDS011;36875;49.468;11.200;2022-09-03T13:06:11;8.18;;;2.58;;
50056;SDS011;36875;49.468;11.200;2022-09-03T13:08:40;9.18;;;2.42;;
50056;SDS011;36875;49.468;11.200;2022-09-03T13:11:10;7.15;;;2.72;;
50056;SDS011;36875;49.468;11.200;2022-09-03T13:13:47;6.10;;;2.50;;
50056;SDS011;36875;49.468;11.200;2022-09-03T13:16:28;7.68;;;2.67;;
50056;SDS011;36875;49.468;11.200;2022-09-03T13:19:13;8.95;;;2.30;;
50056;SDS011;36875;49.468;11.200;2022-09-03T13:21:47;7.20;;;3.10;;
50056;SDS011;36875;49.468;11.200;2022-09-03T13:24:24;5.68;;;2.30;;
50056;SDS011;36875;49.468;11.200;2022-09-03T13:27:04;5.68;;;2.30;;
50056;SDS011;36875;49.468;11.200;2022-09-03T13:29:46;5.53;;;2.20;;
50056;SDS011;36875;49.468;11.200;2022-09-03T13:32:30;8.43;;;2.13;;
50056;SDS011;36875;49.468;11.200;2022-09-03T13:35:05;5.60;;;2.10;;
50056;SDS011;36875;49.468;11.200;2022-09-03T13:37:36;6.90;;;2.35;;
50056;SDS011;36875;49.468;11.200;2022-09-03T13:40:08;5.90;;;2.33;;
50056;SDS011;36875;49.468;11.200;2022-09-03T13:42:40;5.65;;;2.40;;
50056;SDS011;36875;49.468;11.200;2022-09-03T13:45:13;6.82;;;2.40;;
50056;SDS011;36875;49.468;11.200;2022-09-03T13:47:47;6.85;;;2.55;;
50056;SDS011;36875;49.468;11.200;2022-09-03T13:50:37;5.32;;;2.08;;
50056;SDS011;36875;49.468;11.200;2022-09-03T13:53:07;6.32;;;2.60;;
50056;SDS011;36875;49.468;11.200;2022-09-03T13:55:41;7.35;;;2.42;;
50056;SDS011;36875;49.468;11.200;2022-09-03T13:58:17;5.78;;;2.05;;
50056;SDS011;36875;49.468;11.200;2022-09-03T14:00:46;6.80;;;2.20;;
50056;SDS011;36875;49.468;11.200;2022-09-03T14:05:53;6.32;;;2.30;;
50056;SDS011;36875;49.468;11.200;2022-09-03T14:08:27;4.88;;;2.20;;
50056;SDS011;36875;49.468;11.200;2022-09-03T14:11:02;4.57;;;1.95;;
50056;SDS011;36875;49.468;11.200;2022-09-03T14:13:46;7.00;;;2.20;;
50056;SDS011;36875;49.468;11.200;2022-09-03T14:16:23;7.75;;;2.63;;
50056;SDS011;36875;49.468;11.200;2022-09-03T14:18:57;6.88;;;2.25;;
50056;SDS011;36875;49.468;11.200;2022-09-03T14:21:32;6.15;;;2.20;;
50056;SDS011;36875;49.468;11.200;2022-09-03T14:24:04;6.53;;;2.22;;
50056;SDS011;36875;49.468;11.200;2022-09-03T14:26:35;6.07;;;2.40;;
50056;SDS011;36875;49.468;11.200;2022-09-03T14:29:07;6.80;;;2.30;;
50056;SDS011;36875;49.468;11.200;2022-09-03T14:31:46;3.80;;;1.88;;
50056;SDS011;36875;49.468;11.200;2022-09-03T14:34:25;5.55;;;2.25;;
50056;SDS011;36875;49.468;11.200;2022-09-03T14:39:33;4.63;;;2.38;;
50056;SDS011;36875;49.468;11.200;2022-09-03T14:42:12;6.78;;;3.20;;
50056;SDS011;36875;49.468;11.200;2022-09-03T14:44:56;6.05;;;2.10;;
50056;SDS011;36875;49.468;11.200;2022-09-03T14:47:45;5.80;;;2.00;;
50056;SDS011;36875;49.468;11.200;2022-09-03T14:50:30;6.82;;;2.25;;
50056;SDS011;36875;49.468;11.200;2022-09-03T14:53:12;7.38;;;2.47;;
50056;SDS011;36875;49.468;11.200;2022-09-03T14:58:45;8.85;;;2.08;;
50056;SDS011;36875;49.468;11.200;2022-09-03T15:01:25;5.32;;;2.67;;
50056;SDS011;36875;49.468;11.200;2022-09-03T15:06:56;4.28;;;1.98;;
50056;SDS011;36875;49.468;11.200;2022-09-03T15:09:41;6.90;;;2.20;;
50056;SDS011;36875;49.468;11.200;2022-09-03T15:12:17;6.82;;;2.42;;
50056;SDS011;36875;49.468;11.200;2022-09-03T15:15:04;4.28;;;1.90;;
50056;SDS011;36875;49.468;11.200;2022-09-03T15:17:46;6.22;;;2.10;;